createdAt,value
2023-04-29T00:01:26.121Z,101169.75
2023-04-29T00:03:53.773Z,101177.50
2023-04-29T00:06:21.801Z,101178.13
2023-04-29T00:08:49.005Z,101176.09
2023-04-29T00:11:16.391Z,101175.78
2023-04-29T00:13:43.482Z,101182.25
2023-04-29T00:16:10.556Z,101178.75
2023-04-29T00:18:38.122Z,101187.78
2023-04-29T00:21:08.369Z,101184.28
2023-04-29T00:23:35.555Z,101189.59
2023-04-29T00:26:02.701Z,101194.03
2023-04-29T00:28:29.686Z,101203.56
2023-04-29T00:30:57.379Z,101196.56
2023-04-29T00:33:24.529Z,101207.72
2023-04-29T00:35:51.583Z,101211.84
2023-04-29T00:38:18.637Z,101214.19
2023-04-29T00:40:45.946Z,101220.66
2023-04-29T00:43:13.572Z,101215.69
2023-04-29T00:45:40.662Z,101218.66
2023-04-29T00:48:08.069Z,101221.00
2023-04-29T00:50:36.887Z,101223.31
2023-04-29T00:53:04.498Z,101226.41
2023-04-29T00:55:33.671Z,101237.34
2023-04-29T00:58:02.918Z,101238.06
2023-04-29T01:00:31.001Z,101242.66
2023-04-29T01:03:00.051Z,101242.03
2023-04-29T01:05:27.279Z,101247.31
2023-04-29T01:08:06.422Z,101258.03
2023-04-29T01:10:42.258Z,101257.59
2023-04-29T01:13:19.371Z,101253.03
2023-04-29T01:16:23.645Z,101250.81
2023-04-29T01:18:55.736Z,101259.19
2023-04-29T01:21:23.036Z,101255.56
2023-04-29T01:23:56.125Z,101259.63
2023-04-29T01:26:24.105Z,101263.66
2023-04-29T01:28:59.771Z,101262.88
2023-04-29T01:31:46.664Z,101276.59
2023-04-29T01:34:47.963Z,101275.41
2023-04-29T01:37:23.035Z,101271.38
2023-04-29T01:39:56.864Z,101271.38
2023-04-29T01:42:36.823Z,101277.84
2023-04-29T01:45:08.457Z,101282.94
2023-04-29T01:47:36.820Z,101290.81
2023-04-29T01:50:04.477Z,101289.63
2023-04-29T01:52:31.425Z,101295.16
2023-04-29T01:54:58.315Z,101302.78
2023-04-29T01:57:25.292Z,101303.41
2023-04-29T01:59:52.865Z,101303.50
2023-04-29T02:02:23.695Z,101310.72
2023-04-29T02:04:51.015Z,101315.28
2023-04-29T02:07:18.047Z,101324.38
2023-04-29T02:09:44.989Z,101328.66
2023-04-29T02:12:11.947Z,101329.50
2023-04-29T02:14:39.053Z,101332.13
2023-04-29T02:17:06.117Z,101335.75
2023-04-29T02:19:33.212Z,101341.97
2023-04-29T02:22:00.183Z,101345.16
2023-04-29T02:24:27.127Z,101341.00
2023-04-29T02:26:54.283Z,101355.22
2023-04-29T02:29:21.591Z,101356.47
2023-04-29T02:31:48.552Z,101356.69
2023-04-29T02:34:15.627Z,101360.25
2023-04-29T02:36:42.690Z,101361.56
2023-04-29T02:39:09.668Z,101366.97
2023-04-29T02:41:36.579Z,101373.97
2023-04-29T02:44:04.152Z,101370.00
2023-04-29T02:46:33.015Z,101371.63
2023-04-29T02:48:59.977Z,101377.25
2023-04-29T02:51:26.923Z,101378.94
2023-04-29T02:53:54.184Z,101390.50
2023-04-29T02:56:21.786Z,101385.06
2023-04-29T02:58:48.857Z,101385.81
2023-04-29T03:01:15.818Z,101398.00
2023-04-29T03:03:42.949Z,101397.34
2023-04-29T03:06:10.285Z,101392.47
2023-04-29T03:08:37.239Z,101399.81
2023-04-29T03:11:04.665Z,101402.47
2023-04-29T03:13:31.609Z,101409.25
2023-04-29T03:16:00.736Z,101404.69
2023-04-29T03:18:28.160Z,101404.09
2023-04-29T03:20:55.136Z,101415.66
2023-04-29T03:23:22.673Z,101415.47
2023-04-29T03:25:50.178Z,101417.94
2023-04-29T03:28:17.108Z,101421.78
2023-04-29T03:30:44.004Z,101415.28
2023-04-29T03:33:11.054Z,101423.41
2023-04-29T03:35:37.935Z,101421.44
2023-04-29T03:38:04.842Z,101425.56
2023-04-29T03:40:31.732Z,101428.31
2023-04-29T03:42:58.728Z,101428.59
2023-04-29T03:45:25.718Z,101427.56
2023-04-29T03:47:53.642Z,101430.41
2023-04-29T03:50:20.804Z,101432.59
2023-04-29T03:52:47.796Z,101440.00
2023-04-29T03:55:14.816Z,101451.63
2023-04-29T03:57:42.467Z,101452.78
2023-04-29T04:00:10.342Z,101460.16
2023-04-29T04:02:37.597Z,101456.84
2023-04-29T04:05:05.013Z,101462.69
2023-04-29T04:07:31.935Z,101462.22
2023-04-29T04:09:58.858Z,101465.94
2023-04-29T04:12:25.796Z,101469.81
2023-04-29T04:14:53.210Z,101478.03
2023-04-29T04:17:20.235Z,101476.97
2023-04-29T04:19:47.158Z,101490.16
2023-04-29T04:22:14.459Z,101482.69
2023-04-29T04:24:41.397Z,101487.97
2023-04-29T04:27:08.379Z,101490.91
2023-04-29T04:29:35.295Z,101492.91
2023-04-29T04:32:02.919Z,101490.44
2023-04-29T04:34:29.863Z,101494.59
2023-04-29T04:36:56.866Z,101504.59
2023-04-29T04:39:24.049Z,101501.03
2023-04-29T04:41:50.905Z,101506.72
2023-04-29T04:44:17.847Z,101508.31
2023-04-29T04:46:44.890Z,101508.41
2023-04-29T04:49:11.980Z,101517.66
2023-04-29T04:51:38.924Z,101517.00
2023-04-29T04:54:05.905Z,101524.97
2023-04-29T04:56:32.809Z,101538.97
2023-04-29T04:58:59.727Z,101555.91
2023-04-29T05:01:26.665Z,101552.22
2023-04-29T05:03:53.815Z,101555.53
2023-04-29T05:06:20.858Z,101553.63
2023-04-29T05:08:47.798Z,101555.53
2023-04-29T05:11:18.903Z,101564.03
2023-04-29T05:13:46.110Z,101566.03
2023-04-29T05:16:13.118Z,101566.69
2023-04-29T05:18:40.222Z,101568.38
2023-04-29T05:21:07.205Z,101579.56
2023-04-29T05:23:34.172Z,101573.50
2023-04-29T05:26:01.067Z,101575.19
2023-04-29T05:28:28.483Z,101572.25
2023-04-29T05:30:55.635Z,101572.19
2023-04-29T05:33:22.894Z,101577.56
2023-04-29T05:35:49.834Z,101583.53
2023-04-29T05:38:16.749Z,101583.91
2023-04-29T05:40:43.792Z,101586.72
2023-04-29T05:43:11.537Z,101590.31
2023-04-29T05:45:38.527Z,101595.81
2023-04-29T05:48:05.845Z,101598.47
2023-04-29T05:50:32.915Z,101596.41
2023-04-29T05:52:59.816Z,101596.28
2023-04-29T05:55:26.904Z,101599.97
2023-04-29T05:57:53.833Z,101602.56
2023-04-29T06:00:20.829Z,101615.88
2023-04-29T06:02:58.011Z,101611.53
2023-04-29T06:05:26.662Z,101616.28
2023-04-29T06:07:53.842Z,101619.50
2023-04-29T06:10:20.871Z,101621.41
2023-04-29T06:12:50.940Z,101633.88
2023-04-29T06:15:18.046Z,101635.22
2023-04-29T06:17:45.233Z,101640.88
2023-04-29T06:20:12.736Z,101641.47
2023-04-29T06:22:39.674Z,101637.19
2023-04-29T06:25:06.950Z,101640.81
2023-04-29T06:27:33.885Z,101647.88
2023-04-29T06:30:00.813Z,101658.00
2023-04-29T06:32:27.694Z,101657.81
2023-04-29T06:34:54.772Z,101659.63
2023-04-29T06:37:21.742Z,101664.19
2023-04-29T06:39:48.737Z,101662.28
2023-04-29T06:42:15.855Z,101670.16
2023-04-29T06:44:42.864Z,101676.31
2023-04-29T06:47:10.106Z,101680.56
2023-04-29T06:49:37.089Z,101673.25
2023-04-29T06:52:04.213Z,101681.50
2023-04-29T06:54:31.172Z,101692.69
2023-04-29T06:56:58.562Z,101698.66
2023-04-29T06:59:25.569Z,101691.75
2023-04-29T07:01:52.587Z,101697.72
2023-04-29T07:04:19.942Z,101708.50
2023-04-29T07:06:47.390Z,101707.25
2023-04-29T07:09:14.685Z,101717.31
2023-04-29T07:11:42.230Z,101719.09
2023-04-29T07:14:09.881Z,101716.13
2023-04-29T07:16:36.877Z,101734.38
2023-04-29T07:19:03.840Z,101721.22
2023-04-29T07:21:31.480Z,101721.88
2023-04-29T07:24:00.948Z,101727.06
2023-04-29T07:26:28.066Z,101730.25
2023-04-29T07:28:54.983Z,101735.50
2023-04-29T07:31:22.802Z,101733.38
2023-04-29T07:33:49.789Z,101749.59
2023-04-29T07:36:16.837Z,101750.31
2023-04-29T07:38:43.856Z,101748.19
2023-04-29T07:41:10.865Z,101761.28
2023-04-29T07:43:38.803Z,101759.06
2023-04-29T07:46:06.662Z,101766.28
2023-04-29T07:48:40.093Z,101767.59
2023-04-29T07:51:07.204Z,101772.75
2023-04-29T07:53:34.382Z,101777.03
2023-04-29T07:56:06.228Z,101779.63
2023-04-29T07:58:33.409Z,101786.66
2023-04-29T08:01:11.855Z,101787.69
2023-04-29T08:03:41.426Z,101786.84
2023-04-29T08:06:09.350Z,101789.19
2023-04-29T08:08:36.573Z,101790.50
2023-04-29T08:11:03.827Z,101792.00
2023-04-29T08:13:30.742Z,101794.56
2023-04-29T08:15:57.712Z,101797.97
2023-04-29T08:18:24.820Z,101801.06
2023-04-29T08:20:51.773Z,101800.56
2023-04-29T08:23:18.720Z,101806.34
2023-04-29T08:25:46.019Z,101809.84
2023-04-29T08:28:13.300Z,101806.22
2023-04-29T08:30:41.578Z,101809.94
2023-04-29T08:33:09.236Z,101816.13
2023-04-29T08:35:42.412Z,101820.69
2023-04-29T08:38:10.286Z,101820.63
2023-04-29T08:40:43.786Z,101829.00
2023-04-29T08:43:10.871Z,101836.13
2023-04-29T08:45:38.229Z,101840.47
2023-04-29T08:48:07.200Z,101846.78
2023-04-29T08:50:40.336Z,101845.34
2023-04-29T08:53:08.250Z,101839.72
2023-04-29T08:55:46.243Z,101847.59
2023-04-29T08:58:15.438Z,101852.00
2023-04-29T09:00:44.113Z,101852.88
2023-04-29T09:03:43.067Z,101852.34
2023-04-29T09:06:11.313Z,101853.41
2023-04-29T09:08:39.380Z,101859.66
2023-04-29T09:11:10.759Z,101856.03
2023-04-29T09:13:37.797Z,101853.50
2023-04-29T09:16:06.230Z,101854.00
2023-04-29T09:18:44.086Z,101861.03
2023-04-29T09:21:22.938Z,101858.69
2023-04-29T09:23:52.104Z,101858.69
2023-04-29T09:26:19.430Z,101859.78
2023-04-29T09:28:47.953Z,101862.97
2023-04-29T09:31:15.131Z,101858.59
2023-04-29T09:33:56.360Z,101865.75
2023-04-29T09:36:46.477Z,101872.69
2023-04-29T09:39:18.971Z,101866.72
2023-04-29T09:41:54.839Z,101864.78
2023-04-29T09:44:32.928Z,101860.41
2023-04-29T09:47:09.526Z,101861.91
2023-04-29T09:49:38.693Z,101866.81
2023-04-29T09:52:11.097Z,101872.56
2023-04-29T09:54:41.534Z,101869.75
2023-04-29T09:57:10.464Z,101879.44
2023-04-29T09:59:39.956Z,101875.19
2023-04-29T10:02:27.801Z,101876.13
2023-04-29T10:04:58.465Z,101878.59
2023-04-29T10:07:28.415Z,101884.25
2023-04-29T10:09:56.262Z,101889.06
2023-04-29T10:12:27.169Z,101877.88
2023-04-29T10:15:33.859Z,101890.34
2023-04-29T10:18:16.251Z,101886.41
2023-04-29T10:20:47.602Z,101893.63
2023-04-29T10:23:16.414Z,101880.16
2023-04-29T10:25:44.920Z,101882.09
2023-04-29T10:28:17.929Z,101882.44
2023-04-29T10:30:45.854Z,101887.44
2023-04-29T10:33:16.994Z,101900.75
2023-04-29T10:35:45.436Z,101905.06
2023-04-29T10:38:26.376Z,101898.53
2023-04-29T10:40:54.410Z,101908.44
2023-04-29T10:43:25.210Z,101909.06
2023-04-29T10:46:17.715Z,101899.28
2023-04-29T10:48:47.465Z,101902.44
2023-04-29T10:51:31.890Z,101902.78
2023-04-29T10:54:07.674Z,101901.25
2023-04-29T10:56:51.845Z,101897.00
2023-04-29T10:59:33.766Z,101910.44
2023-04-29T11:02:03.735Z,101903.63
2023-04-29T11:04:31.757Z,101908.53
2023-04-29T11:07:03.221Z,101912.81
2023-04-29T11:09:35.512Z,101910.88
2023-04-29T11:12:04.379Z,101910.66
2023-04-29T11:14:32.665Z,101899.28
2023-04-29T11:17:05.303Z,101912.81
2023-04-29T11:19:57.626Z,101899.28
2023-04-29T11:22:27.062Z,101894.66
2023-04-29T11:25:06.168Z,101913.34
2023-04-29T11:27:34.033Z,101910.69
2023-04-29T11:30:06.184Z,101912.38
2023-04-29T11:32:41.596Z,101917.06
2023-04-29T11:35:13.635Z,101917.47
2023-04-29T11:37:42.223Z,101922.41
2023-04-29T11:40:10.265Z,101929.97
2023-04-29T11:42:43.772Z,101934.84
2023-04-29T11:45:11.327Z,101917.25
2023-04-29T11:47:43.999Z,101926.03
2023-04-29T11:50:11.337Z,101928.34
2023-04-29T11:52:40.584Z,101934.09
2023-04-29T11:55:11.966Z,101933.91
2023-04-29T11:57:40.422Z,101928.25
2023-04-29T12:00:14.461Z,101927.53
2023-04-29T12:02:46.779Z,101944.56
2023-04-29T12:05:16.444Z,101930.06
2023-04-29T12:07:44.138Z,101938.28
2023-04-29T12:10:14.229Z,101933.50
2023-04-29T12:12:44.009Z,101947.13
2023-04-29T12:15:12.925Z,101940.53
2023-04-29T12:17:41.036Z,101941.78
2023-04-29T12:20:14.523Z,101938.28
2023-04-29T12:22:44.171Z,101943.91
2023-04-29T12:25:13.457Z,101947.00
2023-04-29T12:27:46.456Z,101953.31
2023-04-29T12:30:13.571Z,101949.16
2023-04-29T12:32:41.184Z,101945.38
2023-04-29T12:35:16.692Z,101958.63
2023-04-29T12:37:43.744Z,101963.53
2023-04-29T12:40:16.553Z,101953.84
2023-04-29T12:42:45.198Z,101953.31
2023-04-29T12:45:29.580Z,101958.00
2023-04-29T12:48:00.954Z,101956.84
2023-04-29T12:50:31.603Z,101963.34
2023-04-29T12:52:58.990Z,101973.22
2023-04-29T12:55:28.505Z,101957.34
2023-04-29T12:57:55.596Z,101962.81
2023-04-29T13:00:22.817Z,101968.25
2023-04-29T13:02:49.987Z,101973.56
2023-04-29T13:05:17.214Z,101975.81
2023-04-29T13:07:44.315Z,101976.66
2023-04-29T13:10:14.489Z,101974.84
2023-04-29T13:12:41.500Z,101980.19
2023-04-29T13:15:11.843Z,101982.50
2023-04-29T13:17:39.310Z,101982.09
2023-04-29T13:20:07.128Z,101990.41
2023-04-29T13:22:34.439Z,101978.69
2023-04-29T13:25:04.991Z,101973.88
2023-04-29T13:27:32.326Z,101985.47
2023-04-29T13:29:59.374Z,101992.53
2023-04-29T13:32:34.722Z,101989.31
2023-04-29T13:35:09.495Z,101981.34
2023-04-29T13:37:36.652Z,101977.50
2023-04-29T13:40:07.238Z,101986.44
2023-04-29T13:42:39.120Z,101992.41
2023-04-29T13:45:16.336Z,101988.69
2023-04-29T13:48:03.056Z,101994.94
2023-04-29T13:53:35.508Z,101996.59
2023-04-29T14:03:21.659Z,101993.13
2023-04-29T14:05:48.837Z,102004.78
2023-04-29T14:08:15.870Z,102002.09
2023-04-29T14:10:43.142Z,102005.50
2023-04-29T14:13:10.045Z,102010.41
2023-04-29T14:15:37.024Z,102003.88
2023-04-29T14:18:04.336Z,102008.78
2023-04-29T14:20:31.810Z,102010.69
2023-04-29T14:22:58.897Z,102015.81
2023-04-29T14:25:26.738Z,102024.16
2023-04-29T14:27:55.573Z,102024.47
2023-04-29T14:30:22.615Z,102028.00
2023-04-29T14:32:49.611Z,102032.25
2023-04-29T14:35:16.844Z,102030.44
2023-04-29T14:37:43.825Z,102037.03
2023-04-29T14:40:11.198Z,102048.38
2023-04-29T14:42:38.736Z,102039.06
2023-04-29T14:45:07.062Z,102035.84
2023-04-29T14:47:34.541Z,102038.94
2023-04-29T14:50:02.213Z,102051.28
2023-04-29T14:52:29.242Z,102052.22
2023-04-29T14:54:59.000Z,102050.53
2023-04-29T14:57:25.902Z,102062.38
2023-04-29T14:59:52.790Z,102060.00
2023-04-29T15:02:19.690Z,102065.06
2023-04-29T15:04:49.419Z,102063.88
2023-04-29T15:07:16.764Z,102051.22
2023-04-29T15:09:43.858Z,102047.53
2023-04-29T15:12:10.895Z,102063.97
2023-04-29T15:14:38.084Z,102067.38
2023-04-29T15:17:05.365Z,102072.00
2023-04-29T15:19:35.617Z,102071.09
2023-04-29T15:22:02.543Z,102065.28
2023-04-29T15:24:32.907Z,102071.88
2023-04-29T15:26:59.859Z,102067.78
2023-04-29T15:29:27.562Z,102073.88
2023-04-29T15:31:54.558Z,102080.19
2023-04-29T15:34:21.986Z,102086.91
2023-04-29T15:36:50.040Z,102089.91
2023-04-29T15:39:19.749Z,102097.13
2023-04-29T15:41:46.828Z,102089.03
2023-04-29T15:44:16.440Z,102095.63
2023-04-29T15:46:43.415Z,102100.47
2023-04-29T15:49:13.396Z,102111.84
2023-04-29T15:51:40.341Z,102110.31
2023-04-29T15:54:07.905Z,102114.41
2023-04-29T15:56:37.245Z,102118.09
2023-04-29T15:59:04.150Z,102118.19
2023-04-29T16:01:31.980Z,102125.00
2023-04-29T16:03:59.902Z,102118.81
2023-04-29T16:06:27.714Z,102125.88
2023-04-29T16:08:56.762Z,102124.69
2023-04-29T16:11:23.870Z,102126.13
2023-04-29T16:13:50.965Z,102134.97
2023-04-29T16:16:18.827Z,102140.78
2023-04-29T16:18:48.891Z,102143.69
2023-04-29T16:21:15.853Z,102139.91
2023-04-29T16:23:42.843Z,102147.03
2023-04-29T16:26:10.845Z,102145.72
2023-04-29T16:28:38.126Z,102149.09
2023-04-29T16:31:07.821Z,102132.41
2023-04-29T16:33:34.825Z,102143.53
2023-04-29T16:36:05.386Z,102144.59
2023-04-29T16:38:32.352Z,102141.69
2023-04-29T16:40:59.387Z,102144.41
2023-04-29T16:43:28.936Z,102145.34
2023-04-29T16:45:56.194Z,102148.34
2023-04-29T16:48:25.875Z,102145.41
2023-04-29T16:50:52.884Z,102153.41
2023-04-29T16:53:20.135Z,102155.50
2023-04-29T16:55:47.169Z,102164.91
2023-04-29T16:58:14.131Z,102152.09
2023-04-29T17:00:41.205Z,102154.38
2023-04-29T17:03:08.332Z,102153.63
2023-04-29T17:05:38.721Z,102148.22
2023-04-29T17:08:05.887Z,102155.03
2023-04-29T17:10:32.817Z,102157.41
2023-04-29T17:12:59.893Z,102159.53
2023-04-29T17:15:28.845Z,102159.16
2023-04-29T17:17:55.933Z,102167.13
2023-04-29T17:20:22.952Z,102159.91
2023-04-29T17:22:50.576Z,102169.00
2023-04-29T17:25:18.086Z,102172.34
2023-04-29T17:27:46.088Z,102171.72
2023-04-29T17:30:13.424Z,102172.13
2023-04-29T17:32:40.523Z,102175.84
2023-04-29T17:35:08.836Z,102174.69
2023-04-29T17:37:36.380Z,102179.25
2023-04-29T17:40:03.953Z,102174.00
2023-04-29T17:42:30.912Z,102177.91
2023-04-29T17:45:00.454Z,102183.78
2023-04-29T17:47:27.495Z,102178.19
2023-04-29T17:49:54.609Z,102182.41
2023-04-29T17:52:21.745Z,102177.66
2023-04-29T17:54:49.435Z,102179.75
2023-04-29T17:57:16.517Z,102189.59
2023-04-29T17:59:43.965Z,102189.19
2023-04-29T18:02:10.963Z,102194.63
2023-04-29T18:04:41.891Z,102195.66
2023-04-29T18:07:09.046Z,102193.84
2023-04-29T18:09:36.418Z,102200.78
2023-04-29T18:12:05.279Z,102197.34
2023-04-29T18:14:32.363Z,102198.47
2023-04-29T18:17:01.424Z,102204.75
2023-04-29T18:19:28.847Z,102208.53
2023-04-29T18:21:59.472Z,102211.53
2023-04-29T18:24:26.496Z,102218.38
2023-04-29T18:26:53.793Z,102222.66
2023-04-29T18:29:20.717Z,102218.31
2023-04-29T18:31:47.898Z,102213.69
2023-04-29T18:34:15.818Z,102221.16
2023-04-29T18:36:42.914Z,102218.50
2023-04-29T18:39:10.038Z,102222.34
2023-04-29T18:41:37.443Z,102219.53
2023-04-29T18:44:04.638Z,102223.28
2023-04-29T18:46:31.814Z,102225.72
2023-04-29T18:48:58.760Z,102223.63
2023-04-29T18:51:26.960Z,102227.34
2023-04-29T18:53:54.068Z,102228.38
2023-04-29T18:56:21.572Z,102234.03
2023-04-29T18:58:49.436Z,102246.38
2023-04-29T19:01:17.100Z,102245.78
2023-04-29T19:03:44.157Z,102246.66
2023-04-29T19:06:11.265Z,102248.03
2023-04-29T19:08:38.280Z,102255.03
2023-04-29T19:11:05.301Z,102261.38
2023-04-29T19:13:32.289Z,102267.16
2023-04-29T19:15:59.581Z,102261.84
2023-04-29T19:18:29.336Z,102270.50
2023-04-29T19:20:59.095Z,102277.31
2023-04-29T19:23:26.204Z,102275.25
2023-04-29T19:25:53.088Z,102277.06
2023-04-29T19:28:20.088Z,102278.25
2023-04-29T19:30:47.093Z,102280.47
2023-04-29T19:33:14.117Z,102288.25
2023-04-29T19:35:41.100Z,102290.72
2023-04-29T19:38:08.012Z,102292.91
2023-04-29T19:40:35.073Z,102299.31
2023-04-29T19:43:02.020Z,102300.50
2023-04-29T19:45:31.843Z,102302.91
2023-04-29T19:48:02.237Z,102296.91
2023-04-29T19:50:32.716Z,102301.19
2023-04-29T19:53:03.043Z,102291.59
2023-04-29T19:55:35.631Z,102299.41
2023-04-29T19:58:02.837Z,102303.38
2023-04-29T20:00:36.057Z,102302.66
2023-04-29T20:03:05.970Z,102304.00
2023-04-29T20:05:33.007Z,102303.94
2023-04-29T20:07:59.930Z,102300.25
2023-04-29T20:10:30.114Z,102306.00
2023-04-29T20:12:59.808Z,102310.63
2023-04-29T20:15:26.791Z,102311.13
2023-04-29T20:17:54.386Z,102311.63
2023-04-29T20:20:21.558Z,102316.44
2023-04-29T20:22:48.545Z,102315.69
2023-04-29T20:25:15.535Z,102312.22
2023-04-29T20:27:42.580Z,102320.63
2023-04-29T20:30:12.976Z,102317.84
2023-04-29T20:32:39.981Z,102325.84
2023-04-29T20:35:08.400Z,102325.22
2023-04-29T20:37:35.774Z,102318.03
2023-04-29T20:40:03.153Z,102320.88
2023-04-29T20:42:31.800Z,102318.50
2023-04-29T20:44:59.307Z,102317.06
2023-04-29T20:47:27.751Z,102323.38
2023-04-29T20:49:54.894Z,102324.03
2023-04-29T20:52:22.599Z,102330.31
2023-04-29T20:54:52.345Z,102333.25
2023-04-29T20:57:21.584Z,102336.38
2023-04-29T20:59:49.717Z,102331.16
2023-04-29T21:02:17.358Z,102332.00
2023-04-29T21:04:44.789Z,102336.09
2023-04-29T21:07:13.903Z,102340.19
2023-04-29T21:09:40.935Z,102332.88
2023-04-29T21:12:08.573Z,102340.19
2023-04-29T21:14:36.713Z,102345.06
2023-04-29T21:17:04.060Z,102343.38
2023-04-29T21:19:32.509Z,102349.47
2023-04-29T21:21:59.554Z,102350.16
2023-04-29T21:24:27.228Z,102352.94
2023-04-29T21:26:54.371Z,102349.63
2023-04-29T21:29:21.533Z,102345.19
2023-04-29T21:31:48.504Z,102352.47
2023-04-29T21:34:16.299Z,102360.63
2023-04-29T21:36:43.238Z,102360.56
2023-04-29T21:39:10.956Z,102357.84
2023-04-29T21:41:42.291Z,102359.53
2023-04-29T21:44:09.709Z,102366.63
2023-04-29T21:46:41.121Z,102359.13
2023-04-29T21:49:08.762Z,102362.84
2023-04-29T21:51:40.828Z,102361.28
2023-04-29T21:54:08.922Z,102365.88
2023-04-29T21:56:36.096Z,102362.34
2023-04-29T21:59:03.129Z,102364.97
2023-04-29T22:01:48.456Z,102355.16
2023-04-29T22:04:21.759Z,102362.59
2023-04-29T22:06:48.851Z,102355.66
2023-04-29T22:09:16.309Z,102357.19
2023-04-29T22:11:46.314Z,102359.81
2023-04-29T22:14:13.589Z,102358.16
2023-04-29T22:16:46.770Z,102358.59
2023-04-29T22:19:15.583Z,102362.81
2023-04-29T22:21:43.201Z,102362.69
2023-04-29T22:24:10.417Z,102363.66
2023-04-29T22:26:37.407Z,102364.66
2023-04-29T22:29:04.698Z,102362.31
2023-04-29T22:31:31.639Z,102363.81
2023-04-29T22:33:58.582Z,102363.66
2023-04-29T22:36:26.187Z,102371.47
2023-04-29T22:38:53.080Z,102375.25
2023-04-29T22:41:19.977Z,102372.94
2023-04-29T22:43:46.946Z,102374.00
2023-04-29T22:46:14.195Z,102374.63
2023-04-29T22:48:41.156Z,102381.59
2023-04-29T22:51:10.890Z,102371.34
2023-04-29T22:53:37.944Z,102377.91
2023-04-29T22:56:05.429Z,102384.78
2023-04-29T22:58:35.229Z,102385.50
2023-04-29T23:01:02.240Z,102394.22
2023-04-29T23:03:29.194Z,102385.63
2023-04-29T23:06:00.093Z,102386.69
2023-04-29T23:08:27.651Z,102392.78
2023-04-29T23:10:54.834Z,102388.63
2023-04-29T23:13:24.578Z,102390.44
2023-04-29T23:15:52.411Z,102396.75
2023-04-29T23:18:19.402Z,102392.00
2023-04-29T23:20:48.026Z,102393.31
2023-04-29T23:23:15.019Z,102392.44
2023-04-29T23:25:45.828Z,102394.50
2023-04-29T23:28:15.511Z,102400.50
2023-04-29T23:30:44.800Z,102400.84
2023-04-29T23:33:12.020Z,102396.94
2023-04-29T23:35:41.904Z,102406.44
2023-04-29T23:38:08.946Z,102405.38
2023-04-29T23:40:35.978Z,102401.03
2023-04-29T23:43:03.125Z,102411.31
2023-04-29T23:45:32.278Z,102415.94
2023-04-29T23:48:05.067Z,102411.06
2023-04-29T23:50:32.155Z,102410.56
2023-04-29T23:52:59.101Z,102412.56
2023-04-29T23:55:28.467Z,102419.44
2023-04-29T23:57:55.394Z,102417.97
